world map with ETEB marked

ETEB - Heliport

This information may not be accurate or current and is not valid for navigation or flight planning. No warranty of fitness for any purpose is made or implied.

flag of Bavariaflag of Germany

Donate via PayPal

Additional information is available on the NEW Great Circle Mapper

Location
City:  Ansbach, Bavaria, Germany
Near (Alt.):Katterbach
Name:AHP
ICAO:ETEB

Details
Type:Heliport
Use:Military
Latitude:49°18'30"N (49.308219)
Longitude:10°38'19"E (10.638717)
Datum:WGS 1984
Elevation:1532 ft (467 m)
Helipads:unknown number
Largest:1000 ft (305 m)

Time
Timezone:UTC+1 (DST+4)
Local Time:

Weather
METAR:ETEB  041356Z AUTO 16006KT 9999 CLR 02/M07 A3033 RMK AO2 SLP308 T00171066 $
TAF:ETEB  (expired)

Related Locations
Nearby:
Farthest:CHT: 11926 mi / 19193 km
Waitangi [Tuuta], CIT, NZ

Find:

   beyond  
but within

Other Information
Maps:
Sources:

  


 


Great Circle Mapper   Great Circle Mapper
Great Circle Mapper FAQ   Great Circle Mapper FAQ
  Karl's Home Page
KLSē   KLSē Home
   GC on Facebook
Airlines of the World   Airlines of the World
Donate via PayPal


Copyright © 2004-2020, Karl L. Swartz. All rights reserved.
All trademarks mentioned herein belong to their respective owners.

Please see credits for attribution and copyright information.

Karl Swartz <karl@kls2.com>
  Powered by FreeBSD
Valid HTML 4.01!
Labeled with ICRA
hCard Microformat
Geo Microformat